sensor_id;sensor_type;location;lat;lon;timestamp;P1;durP1;ratioP1;P2;durP2;ratioP2
64242;SDS011;50573;51.512;5.386;2022-07-22T00:02:47;11.80;;;6.32;;
64242;SDS011;50573;51.512;5.386;2022-07-22T00:22:55;18.92;;;8.35;;
64242;SDS011;50573;51.512;5.386;2022-07-22T00:32:58;22.83;;;8.17;;
64242;SDS011;50573;51.512;5.386;2022-07-22T00:43:02;18.00;;;7.47;;
64242;SDS011;50573;51.512;5.386;2022-07-22T00:53:06;18.48;;;7.47;;
64242;SDS011;50573;51.512;5.386;2022-07-22T01:03:10;21.63;;;8.35;;
64242;SDS011;50573;51.512;5.386;2022-07-22T01:23:18;25.20;;;8.25;;
64242;SDS011;50573;51.512;5.386;2022-07-22T01:33:21;18.73;;;9.07;;
64242;SDS011;50573;51.512;5.386;2022-07-22T01:43:26;21.23;;;9.77;;
64242;SDS011;50573;51.512;5.386;2022-07-22T01:53:30;22.98;;;8.82;;
64242;SDS011;50573;51.512;5.386;2022-07-22T02:03:35;25.05;;;9.55;;
64242;SDS011;50573;51.512;5.386;2022-07-22T02:13:40;23.13;;;10.63;;
64242;SDS011;50573;51.512;5.386;2022-07-22T02:23:45;29.52;;;12.20;;
64242;SDS011;50573;51.512;5.386;2022-07-22T02:33:49;22.35;;;11.10;;
64242;SDS011;50573;51.512;5.386;2022-07-22T02:43:54;29.52;;;11.90;;
64242;SDS011;50573;51.512;5.386;2022-07-22T02:53:57;26.88;;;12.00;;
64242;SDS011;50573;51.512;5.386;2022-07-22T03:04:02;26.88;;;11.18;;
64242;SDS011;50573;51.512;5.386;2022-07-22T03:14:08;24.27;;;10.40;;
64242;SDS011;50573;51.512;5.386;2022-07-22T03:24:13;23.25;;;9.80;;
64242;SDS011;50573;51.512;5.386;2022-07-22T03:34:17;21.33;;;9.85;;
64242;SDS011;50573;51.512;5.386;2022-07-22T03:44:30;21.73;;;10.05;;
64242;SDS011;50573;51.512;5.386;2022-07-22T03:54:33;27.77;;;11.13;;
64242;SDS011;50573;51.512;5.386;2022-07-22T04:04:37;25.30;;;11.48;;
64242;SDS011;50573;51.512;5.386;2022-07-22T04:14:41;25.77;;;10.77;;
64242;SDS011;50573;51.512;5.386;2022-07-22T04:24:45;25.25;;;11.13;;
64242;SDS011;50573;51.512;5.386;2022-07-22T04:34:48;27.58;;;10.70;;
64242;SDS011;50573;51.512;5.386;2022-07-22T04:44:53;20.27;;;9.60;;
64242;SDS011;50573;51.512;5.386;2022-07-22T04:54:57;25.67;;;10.55;;
64242;SDS011;50573;51.512;5.386;2022-07-22T05:05:02;31.83;;;12.33;;
64242;SDS011;50573;51.512;5.386;2022-07-22T05:15:06;33.08;;;14.02;;
64242;SDS011;50573;51.512;5.386;2022-07-22T05:25:12;22.98;;;11.82;;
64242;SDS011;50573;51.512;5.386;2022-07-22T05:35:16;24.30;;;11.65;;
64242;SDS011;50573;51.512;5.386;2022-07-22T05:45:20;24.75;;;11.35;;
64242;SDS011;50573;51.512;5.386;2022-07-22T05:55:23;25.00;;;10.73;;
64242;SDS011;50573;51.512;5.386;2022-07-22T06:05:29;34.43;;;10.10;;
64242;SDS011;50573;51.512;5.386;2022-07-22T06:15:41;17.20;;;9.18;;
64242;SDS011;50573;51.512;5.386;2022-07-22T06:25:47;12.75;;;7.57;;
64242;SDS011;50573;51.512;5.386;2022-07-22T06:36:04;12.63;;;6.20;;
64242;SDS011;50573;51.512;5.386;2022-07-22T06:46:12;17.70;;;6.75;;
64242;SDS011;50573;51.512;5.386;2022-07-22T07:06:29;5.57;;;2.60;;
64242;SDS011;50573;51.512;5.386;2022-07-22T07:16:58;8.82;;;3.25;;
64242;SDS011;50573;51.512;5.386;2022-07-22T07:27:04;6.35;;;3.10;;
64242;SDS011;50573;51.512;5.386;2022-07-22T07:37:08;7.30;;;2.83;;
64242;SDS011;50573;51.512;5.386;2022-07-22T07:47:14;4.10;;;1.40;;
64242;SDS011;50573;51.512;5.386;2022-07-22T07:57:20;8.25;;;2.55;;
64242;SDS011;50573;51.512;5.386;2022-07-22T08:07:25;6.40;;;2.23;;
64242;SDS011;50573;51.512;5.386;2022-07-22T08:17:32;5.97;;;1.75;;
64242;SDS011;50573;51.512;5.386;2022-07-22T08:27:38;4.55;;;1.77;;
64242;SDS011;50573;51.512;5.386;2022-07-22T08:37:41;5.60;;;1.83;;
64242;SDS011;50573;51.512;5.386;2022-07-22T08:47:49;6.55;;;2.30;;
64242;SDS011;50573;51.512;5.386;2022-07-22T08:57:59;6.07;;;2.28;;
64242;SDS011;50573;51.512;5.386;2022-07-22T09:08:04;5.77;;;2.47;;
64242;SDS011;50573;51.512;5.386;2022-07-22T09:18:47;6.68;;;2.55;;
64242;SDS011;50573;51.512;5.386;2022-07-22T09:29:18;6.40;;;3.25;;
64242;SDS011;50573;51.512;5.386;2022-07-22T09:39:48;7.13;;;2.67;;
64242;SDS011;50573;51.512;5.386;2022-07-22T09:49:54;4.70;;;2.72;;
64242;SDS011;50573;51.512;5.386;2022-07-22T10:00:11;7.68;;;3.15;;
64242;SDS011;50573;51.512;5.386;2022-07-22T10:10:27;5.93;;;2.83;;
64242;SDS011;50573;51.512;5.386;2022-07-22T10:20:31;6.93;;;2.92;;
64242;SDS011;50573;51.512;5.386;2022-07-22T10:30:37;10.98;;;3.53;;
64242;SDS011;50573;51.512;5.386;2022-07-22T10:40:46;6.95;;;3.28;;
64242;SDS011;50573;51.512;5.386;2022-07-22T10:50:53;6.63;;;3.78;;
64242;SDS011;50573;51.512;5.386;2022-07-22T11:00:58;6.95;;;3.72;;
64242;SDS011;50573;51.512;5.386;2022-07-22T11:11:04;5.82;;;4.63;;
64242;SDS011;50573;51.512;5.386;2022-07-22T11:21:07;9.45;;;4.95;;
64242;SDS011;50573;51.512;5.386;2022-07-22T11:31:17;7.75;;;4.53;;
64242;SDS011;50573;51.512;5.386;2022-07-22T11:41:22;7.65;;;5.20;;
64242;SDS011;50573;51.512;5.386;2022-07-22T11:51:28;8.63;;;6.43;;
64242;SDS011;50573;51.512;5.386;2022-07-22T12:01:33;8.35;;;6.07;;
64242;SDS011;50573;51.512;5.386;2022-07-22T12:11:40;11.05;;;7.60;;
64242;SDS011;50573;51.512;5.386;2022-07-22T12:21:49;12.95;;;8.35;;
64242;SDS011;50573;51.512;5.386;2022-07-22T12:31:56;12.77;;;8.02;;
64242;SDS011;50573;51.512;5.386;2022-07-22T12:42:00;11.18;;;8.10;;
64242;SDS011;50573;51.512;5.386;2022-07-22T12:52:11;11.18;;;8.27;;
64242;SDS011;50573;51.512;5.386;2022-07-22T13:02:16;9.35;;;7.72;;
64242;SDS011;50573;51.512;5.386;2022-07-22T13:12:27;10.50;;;7.28;;
64242;SDS011;50573;51.512;5.386;2022-07-22T13:22:30;13.65;;;8.15;;
64242;SDS011;50573;51.512;5.386;2022-07-22T13:32:34;9.05;;;7.88;;
64242;SDS011;50573;51.512;5.386;2022-07-22T13:42:49;11.05;;;7.22;;
64242;SDS011;50573;51.512;5.386;2022-07-22T13:52:53;9.38;;;6.68;;
64242;SDS011;50573;51.512;5.386;2022-07-22T14:02:57;10.85;;;7.38;;
64242;SDS011;50573;51.512;5.386;2022-07-22T14:13:02;10.60;;;7.25;;
64242;SDS011;50573;51.512;5.386;2022-07-22T14:23:06;10.85;;;6.10;;
64242;SDS011;50573;51.512;5.386;2022-07-22T14:33:12;9.18;;;7.28;;
64242;SDS011;50573;51.512;5.386;2022-07-22T14:43:16;11.57;;;7.93;;
64242;SDS011;50573;51.512;5.386;2022-07-22T14:53:40;11.93;;;6.32;;
64242;SDS011;50573;51.512;5.386;2022-07-22T15:03:44;12.30;;;8.35;;
64242;SDS011;50573;51.512;5.386;2022-07-22T15:13:48;14.27;;;9.80;;
64242;SDS011;50573;51.512;5.386;2022-07-22T15:23:51;16.08;;;9.40;;
64242;SDS011;50573;51.512;5.386;2022-07-22T15:44:02;13.10;;;10.07;;
64242;SDS011;50573;51.512;5.386;2022-07-22T15:54:08;13.55;;;11.15;;
64242;SDS011;50573;51.512;5.386;2022-07-22T16:04:18;16.42;;;11.23;;
64242;SDS011;50573;51.512;5.386;2022-07-22T16:14:26;15.25;;;10.90;;
64242;SDS011;50573;51.512;5.386;2022-07-22T16:24:33;15.68;;;9.95;;
64242;SDS011;50573;51.512;5.386;2022-07-22T16:34:41;14.43;;;10.55;;
64242;SDS011;50573;51.512;5.386;2022-07-22T16:44:51;13.15;;;10.25;;
64242;SDS011;50573;51.512;5.386;2022-07-22T16:54:56;12.18;;;7.30;;
64242;SDS011;50573;51.512;5.386;2022-07-22T17:05:01;11.82;;;7.45;;
64242;SDS011;50573;51.512;5.386;2022-07-22T17:15:15;11.30;;;6.30;;
64242;SDS011;50573;51.512;5.386;2022-07-22T17:25:19;9.15;;;6.03;;
64242;SDS011;50573;51.512;5.386;2022-07-22T17:35:35;10.55;;;6.40;;
64242;SDS011;50573;51.512;5.386;2022-07-22T17:45:43;14.48;;;7.25;;
64242;SDS011;50573;51.512;5.386;2022-07-22T17:55:49;14.37;;;7.13;;
64242;SDS011;50573;51.512;5.386;2022-07-22T18:06:12;10.77;;;5.60;;
64242;SDS011;50573;51.512;5.386;2022-07-22T18:16:16;11.80;;;5.82;;
64242;SDS011;50573;51.512;5.386;2022-07-22T18:26:20;7.57;;;5.38;;
64242;SDS011;50573;51.512;5.386;2022-07-22T18:36:24;10.65;;;5.60;;
64242;SDS011;50573;51.512;5.386;2022-07-22T18:46:30;9.57;;;5.45;;
64242;SDS011;50573;51.512;5.386;2022-07-22T18:56:34;11.75;;;6.07;;
64242;SDS011;50573;51.512;5.386;2022-07-22T19:06:38;13.57;;;6.47;;
64242;SDS011;50573;51.512;5.386;2022-07-22T19:16:43;11.20;;;7.32;;
64242;SDS011;50573;51.512;5.386;2022-07-22T19:26:46;12.85;;;7.63;;
64242;SDS011;50573;51.512;5.386;2022-07-22T19:36:50;16.17;;;8.40;;
64242;SDS011;50573;51.512;5.386;2022-07-22T19:46:54;13.63;;;8.45;;
64242;SDS011;50573;51.512;5.386;2022-07-22T19:56:58;14.65;;;9.82;;
64242;SDS011;50573;51.512;5.386;2022-07-22T20:07:01;17.33;;;9.75;;
64242;SDS011;50573;51.512;5.386;2022-07-22T20:17:06;12.68;;;9.57;;
64242;SDS011;50573;51.512;5.386;2022-07-22T20:27:09;19.40;;;8.93;;
64242;SDS011;50573;51.512;5.386;2022-07-22T20:37:13;17.08;;;7.82;;
64242;SDS011;50573;51.512;5.386;2022-07-22T20:47:16;10.77;;;7.30;;
64242;SDS011;50573;51.512;5.386;2022-07-22T20:57:21;11.77;;;7.75;;
64242;SDS011;50573;51.512;5.386;2022-07-22T21:07:24;12.27;;;7.32;;
64242;SDS011;50573;51.512;5.386;2022-07-22T21:17:29;13.20;;;6.78;;
64242;SDS011;50573;51.512;5.386;2022-07-22T21:27:32;12.73;;;6.40;;
64242;SDS011;50573;51.512;5.386;2022-07-22T21:37:37;13.30;;;6.68;;
64242;SDS011;50573;51.512;5.386;2022-07-22T21:57:44;8.68;;;5.82;;
64242;SDS011;50573;51.512;5.386;2022-07-22T22:07:48;7.88;;;5.30;;
64242;SDS011;50573;51.512;5.386;2022-07-22T22:17:53;11.00;;;5.17;;
64242;SDS011;50573;51.512;5.386;2022-07-22T22:27:56;12.60;;;5.60;;
64242;SDS011;50573;51.512;5.386;2022-07-22T22:38:01;10.35;;;5.20;;
64242;SDS011;50573;51.512;5.386;2022-07-22T22:48:04;8.30;;;4.78;;
64242;SDS011;50573;51.512;5.386;2022-07-22T22:58:09;8.65;;;5.00;;
64242;SDS011;50573;51.512;5.386;2022-07-22T23:08:12;12.35;;;5.78;;
64242;SDS011;50573;51.512;5.386;2022-07-22T23:18:19;8.85;;;4.70;;
64242;SDS011;50573;51.512;5.386;2022-07-22T23:28:27;10.73;;;5.65;;
64242;SDS011;50573;51.512;5.386;2022-07-22T23:38:32;9.60;;;5.20;;
64242;SDS011;50573;51.512;5.386;2022-07-22T23:48:35;11.63;;;5.80;;
64242;SDS011;50573;51.512;5.386;2022-07-22T23:58:39;11.23;;;5.55;;
